Time;durP1;ratioP1;P1;durP2;ratioP2;P2;SDS_P1;SDS_P2;PMS_P1;PMS_P2;Temp;Humidity;BMP_temperature;BMP_pressure;BME280_temperature;BME280_humidity;BME280_pressure;Samples;Min_cycle;Max_cycle;Signal;HPM_P1;HPM_P2
2022/04/12 00:00:22;;;;;;;;;4.33;4.33;;;;;18.38;52.27;99870.53;4883939;29;46871;-85
2022/04/12 00:02:48;;;;;;;;;5.67;5.67;;;;;18.32;52.75;99866.22;4899573;29;45538;-83
2022/04/12 00:05:14;;;;;;;;;4.67;4.67;;;;;18.35;52.93;99870.63;4899951;29;44726;-83
2022/04/12 00:07:42;;;;;;;;;3.00;3.00;;;;;18.34;53.39;99864.34;4883225;29;44925;-84
2022/04/12 00:10:11;;;;;;;;;6.00;5.00;;;;;18.44;52.49;99878.41;4900738;29;46097;-83
2022/04/12 00:12:40;;;;;;;;;4.33;4.33;;;;;18.32;53.57;99878.78;4900276;29;45433;-83
2022/04/12 00:15:08;;;;;;;;;4.67;4.67;;;;;18.33;52.85;99867.97;4899886;29;44767;-84
2022/04/12 00:20:20;;;;;;;;;3.67;3.00;;;;;18.20;53.25;99869.31;4899462;29;45502;-84
2022/04/12 00:22:47;;;;;;;;;4.33;4.00;;;;;18.22;53.04;99853.09;4897528;29;45748;-84
2022/04/12 00:25:13;;;;;;;;;3.00;3.00;;;;;18.17;53.36;99867.56;4894888;29;44842;-84
2022/04/12 00:27:41;;;;;;;;;3.00;3.00;;;;;18.18;53.16;99863.09;4893393;29;45425;-84
2022/04/12 00:30:09;;;;;;;;;3.67;3.00;;;;;18.21;54.01;99879.13;4892994;29;45871;-85
2022/04/12 00:32:35;;;;;;;;;4.33;3.00;;;;;18.12;53.79;99877.59;4894371;29;45467;-84
2022/04/12 00:35:02;;;;;;;;;3.00;3.00;;;;;18.06;54.03;99866.16;4879801;29;45849;-84
2022/04/12 00:37:28;;;;;;;;;7.33;5.67;;;;;18.06;54.29;99882.31;4895766;29;45490;-84
2022/04/12 00:39:54;;;;;;;;;4.00;4.00;;;;;18.08;54.45;99869.69;4894592;29;48338;-86
2022/04/12 00:42:23;;;;;;;;;4.00;4.00;;;;;18.11;54.47;99869.56;4895748;29;45376;-85
2022/04/12 00:44:48;;;;;;;;;4.00;3.67;;;;;17.84;54.87;99839.03;4897574;29;44825;-84
2022/04/12 00:50:38;;;;;;;;;5.67;5.67;;;;;18.03;54.87;99855.47;4895451;29;45405;-85
2022/04/12 00:53:06;;;;;;;;;4.00;4.00;;;;;17.88;55.00;99856.84;4894726;29;45537;-84
2022/04/12 00:55:31;;;;;;;;;5.00;5.00;;;;;17.85;55.14;99857.78;4894712;29;45554;-84
2022/04/12 00:57:57;;;;;;;;;5.67;4.00;;;;;17.67;55.11;99831.41;4877770;29;44848;-85
2022/04/12 01:00:24;;;;;;;;;5.00;4.00;;;;;17.61;55.27;99824.41;4877198;29;46577;-84
2022/04/12 01:06:54;;;;;;;;;5.00;5.00;;;;;17.94;55.18;99854.84;4895513;29;44876;-84
2022/04/12 01:09:21;;;;;;;;;4.00;4.00;;;;;17.70;55.59;99866.28;4880448;29;45417;-85
2022/04/12 01:11:48;;;;;;;;;5.67;3.67;;;;;17.58;55.59;99829.88;4878783;29;47554;-84
2022/04/12 01:14:15;;;;;;;;;5.33;4.00;;;;;17.65;55.97;99836.81;4877637;29;45366;-83
2022/04/12 01:16:41;;;;;;;;;5.33;5.33;;;;;17.65;56.60;99852.09;4877121;29;45614;-83
2022/04/12 01:19:07;;;;;;;;;4.00;4.00;;;;;17.48;56.19;99840.03;4877479;29;45519;-84
2022/04/12 01:21:39;;;;;;;;;5.00;5.00;;;;;17.63;56.39;99844.06;4878093;29;46623;-85
2022/04/12 01:24:06;;;;;;;;;2.67;2.67;;;;;17.49;56.18;99851.66;4894739;29;45477;-85
2022/04/12 01:26:32;;;;;;;;;3.67;3.67;;;;;17.50;56.34;99858.81;4894986;29;45609;-84
2022/04/12 01:28:58;;;;;;;;;3.33;3.33;;;;;17.45;56.63;99849.97;4893831;29;45383;-86
2022/04/12 01:31:25;;;;;;;;;4.67;4.00;;;;;17.45;56.72;99849.97;4891270;29;46943;-85
2022/04/12 01:33:51;;;;;;;;;7.33;3.00;;;;;17.34;56.65;99837.72;4891168;29;44953;-84
2022/04/12 01:36:17;;;;;;;;;5.00;4.00;;;;;17.36;56.74;99857.38;4892152;29;45443;-86
2022/04/12 01:38:42;;;;;;;;;5.00;5.00;;;;;17.09;56.40;99815.16;4892286;29;45383;-85
2022/04/12 01:41:08;;;;;;;;;6.00;5.00;;;;;17.22;56.89;99842.56;4893159;29;47303;-85
2022/04/12 01:43:34;;;;;;;;;4.00;4.00;;;;;17.05;57.48;99822.41;4892047;29;45483;-86
2022/04/12 01:46:00;;;;;;;;;4.00;4.00;;;;;17.03;57.22;99835.00;4876498;29;45565;-86
2022/04/12 01:48:26;;;;;;;;;4.00;4.00;;;;;17.32;57.09;99877.19;4876585;29;45457;-84
2022/04/12 01:50:51;;;;;;;;;4.00;3.33;;;;;17.22;57.34;99870.31;4891580;29;46665;-83
2022/04/12 01:53:17;;;;;;;;;5.67;4.00;;;;;17.20;57.47;99872.16;4892762;29;45654;-85
2022/04/12 01:55:44;;;;;;;;;5.00;4.33;;;;;17.24;57.32;99868.47;4893578;29;45832;-85
2022/04/12 01:58:09;;;;;;;;;4.00;3.33;;;;;17.09;57.88;99872.47;4876461;29;45550;-84
2022/04/12 02:00:42;;;;;;;;;3.33;3.33;;;;;17.31;57.36;99879.91;4892248;29;47283;-85
2022/04/12 02:03:09;;;;;;;;;4.67;4.67;;;;;17.12;58.13;99875.03;4891854;29;45294;-84
2022/04/12 02:05:35;;;;;;;;;6.00;6.00;;;;;17.04;58.34;99860.06;4891804;29;45688;-84
2022/04/12 02:08:23;;;;;;;;;5.67;4.67;;;;;17.24;58.22;99854.16;4892591;29;44787;-84
2022/04/12 02:10:51;;;;;;;;;8.00;5.00;;;;;17.11;58.68;99842.88;4893435;29;45564;-84
2022/04/12 02:13:18;;;;;;;;;4.33;4.33;;;;;16.96;58.79;99849.50;4892222;29;45509;-84
2022/04/12 02:15:44;;;;;;;;;4.67;4.67;;;;;16.93;59.20;99833.50;4891701;29;45441;-84
2022/04/12 02:18:10;;;;;;;;;5.67;5.67;;;;;16.91;59.12;99836.22;4892406;29;44878;-84
2022/04/12 02:20:37;;;;;;;;;5.00;4.00;;;;;17.04;59.17;99833.19;4895848;29;47436;-84
2022/04/12 02:23:03;;;;;;;;;4.00;4.00;;;;;16.82;59.32;99822.16;4892387;29;45418;-83
2022/04/12 02:25:29;;;;;;;;;4.67;4.67;;;;;16.92;59.28;99837.97;4893314;29;45459;-84
2022/04/12 02:27:54;;;;;;;;;5.00;5.00;;;;;16.87;59.46;99825.59;4877345;29;45278;-85
2022/04/12 02:30:20;;;;;;;;;5.00;5.00;;;;;16.91;59.49;99832.66;4892768;29;46976;-85
2022/04/12 02:32:45;;;;;;;;;7.00;5.33;;;;;16.90;59.16;99837.13;4877053;29;45667;-85
2022/04/12 02:35:12;;;;;;;;;4.67;4.67;;;;;16.93;59.42;99842.44;4893172;29;45441;-85
2022/04/12 02:37:37;;;;;;;;;3.00;2.00;;;;;16.91;59.08;99849.66;4877084;29;44954;-85
2022/04/12 02:40:04;;;;;;;;;4.00;4.00;;;;;16.92;59.59;99839.78;4893938;29;45367;-84
2022/04/12 02:42:30;;;;;;;;;6.00;6.00;;;;;16.90;59.33;99857.75;4891935;29;45791;-85
2022/04/12 02:44:55;;;;;;;;;4.67;4.33;;;;;16.92;59.02;99856.75;4877394;29;45436;-84
2022/04/12 02:47:28;;;;;;;;;5.00;5.00;;;;;17.04;59.20;99857.38;4892987;29;45325;-84
2022/04/12 02:49:53;;;;;;;;;7.67;6.00;;;;;16.86;59.28;99839.94;4894059;29;45722;-85
2022/04/12 02:52:19;;;;;;;;;5.00;5.00;;;;;16.91;58.63;99848.78;4894148;29;45314;-85
2022/04/12 02:54:45;;;;;;;;;3.67;3.67;;;;;16.86;58.88;99846.19;4893285;29;45270;-85
2022/04/12 02:57:10;;;;;;;;;7.00;7.00;;;;;16.83;58.80;99840.03;4893667;29;45448;-84
2022/04/12 02:59:36;;;;;;;;;4.00;4.00;;;;;16.76;58.65;99836.56;4876220;29;46505;-84
2022/04/12 03:02:01;;;;;;;;;6.00;5.00;;;;;16.75;58.97;99833.00;4892418;29;45526;-84
2022/04/12 03:04:27;;;;;;;;;7.00;7.00;;;;;16.67;58.54;99818.03;4877775;29;45411;-84
2022/04/12 03:06:52;;;;;;;;;5.00;5.00;;;;;16.70;58.56;99821.50;4895698;29;45366;-84
2022/04/12 03:09:18;;;;;;;;;3.00;3.00;;;;;16.71;58.24;99815.22;4879518;29;46282;-84
2022/04/12 03:11:45;;;;;;;;;5.33;5.33;;;;;16.74;58.33;99808.88;4894551;29;45535;-86
2022/04/12 03:14:11;;;;;;;;;8.00;5.33;;;;;16.66;58.41;99794.78;4883983;29;45365;-86
2022/04/12 03:16:49;;;;;;;;;5.00;5.00;;;;;16.83;58.49;99800.63;4877138;29;45986;-85
2022/04/12 03:19:17;;;;;;;;;4.00;4.00;;;;;16.76;57.79;99796.28;4888878;29;45376;-85
2022/04/12 03:21:44;;;;;;;;;3.00;3.00;;;;;16.67;58.10;99804.59;4895283;29;45414;-86
2022/04/12 03:24:09;;;;;;;;;7.00;4.33;;;;;16.54;57.90;99790.59;4895352;29;45511;-85
2022/04/12 03:26:36;;;;;;;;;4.33;4.00;;;;;16.65;57.88;99809.13;4878746;29;45472;-85
2022/04/12 03:29:03;;;;;;;;;6.00;6.00;;;;;16.65;57.31;99819.88;4895833;29;45074;-85
2022/04/12 03:31:29;;;;;;;;;5.00;4.00;;;;;16.62;57.56;99804.72;4896180;29;44867;-85
2022/04/12 03:33:56;;;;;;;;;4.00;3.33;;;;;16.61;57.46;99808.31;4896783;29;44815;-84
2022/04/12 03:36:21;;;;;;;;;3.33;3.33;;;;;16.53;57.64;99796.91;4878210;29;44786;-85
2022/04/12 03:38:51;;;;;;;;;6.00;5.00;;;;;16.63;56.99;99821.72;4894095;29;45004;-85
2022/04/12 03:41:21;;;;;;;;;4.67;4.67;;;;;16.60;56.87;99828.94;4893776;29;45537;-86
2022/04/12 03:43:47;;;;;;;;;4.67;4.67;;;;;16.56;57.07;99842.44;4876672;29;45396;-85
2022/04/12 03:46:16;;;;;;;;;4.00;3.67;;;;;16.56;56.87;99854.09;4893657;29;45057;-84
2022/04/12 03:48:41;;;;;;;;;6.00;3.67;;;;;16.45;56.77;99840.03;4893123;29;47398;-85
2022/04/12 03:51:06;;;;;;;;;4.00;4.00;;;;;16.47;57.01;99848.94;4876855;29;44858;-85
2022/04/12 03:53:32;;;;;;;;;4.33;4.00;;;;;16.46;56.92;99832.84;4893672;29;45438;-84
2022/04/12 03:56:03;;;;;;;;;5.67;5.00;;;;;16.54;56.33;99822.81;4878572;29;45441;-85
2022/04/12 03:58:28;;;;;;;;;7.00;5.33;;;;;16.38;56.62;99816.94;4893661;29;47748;-84
2022/04/12 04:00:54;;;;;;;;;5.00;5.00;;;;;16.37;56.79;99820.56;4896903;29;45540;-84
2022/04/12 04:03:19;;;;;;;;;3.00;3.00;;;;;16.34;57.11;99800.06;4881823;29;45425;-86
2022/04/12 04:05:45;;;;;;;;;4.33;4.33;;;;;16.30;56.70;99800.16;4896650;29;45733;-86
2022/04/12 04:08:11;;;;;;;;;5.00;5.00;;;;;16.39;56.03;99824.97;4894354;29;46771;-86
2022/04/12 04:10:37;;;;;;;;;3.33;3.33;;;;;16.39;56.57;99824.09;4895879;29;45351;-85
2022/04/12 04:13:08;;;;;;;;;4.33;4.00;;;;;16.42;56.68;99844.59;4878657;29;45507;-85
2022/04/12 04:15:54;;;;;;;;;4.00;4.00;;;;;16.59;56.34;99848.63;4894192;29;44839;-86
2022/04/12 04:18:21;;;;;;;;;5.00;4.00;;;;;16.30;56.32;99825.19;4893923;29;45163;-88
2022/04/12 04:20:46;;;;;;;;;2.67;2.67;;;;;16.27;56.57;99827.06;4895059;29;44872;-83
2022/04/12 04:23:12;;;;;;;;;4.67;4.00;;;;;16.31;55.92;99836.81;4895852;29;45538;-86
2022/04/12 04:25:38;;;;;;;;;4.00;4.00;;;;;16.25;56.61;99827.09;4878528;29;45437;-85
2022/04/12 04:28:22;;;;;;;;;5.00;5.00;;;;;16.44;56.35;99838.28;4894280;29;47267;-86
2022/04/12 04:30:49;;;;;;;;;3.00;3.00;;;;;16.30;56.23;99843.06;4895251;29;45339;-84
2022/04/12 04:33:20;;;;;;;;;3.67;3.67;;;;;16.20;56.38;99846.00;4895237;29;45470;-86
2022/04/12 04:35:46;;;;;;;;;4.67;4.67;;;;;16.25;55.92;99847.69;4896497;29;45590;-85
2022/04/12 04:38:16;;;;;;;;;3.67;2.33;;;;;16.32;56.08;99860.03;4877739;29;48807;-84
2022/04/12 04:40:41;;;;;;;;;4.00;4.00;;;;;16.07;56.44;99849.88;4877775;29;45242;-85
2022/04/12 04:43:08;;;;;;;;;4.33;4.00;;;;;16.11;56.38;99850.69;4894240;29;45520;-85
2022/04/12 04:45:35;;;;;;;;;4.67;3.00;;;;;15.95;56.13;99824.19;4894339;29;45429;-85
2022/04/12 04:48:03;;;;;;;;;8.67;5.00;;;;;16.04;56.77;99835.63;4892898;29;48301;-84
2022/04/12 04:50:34;;;;;;;;;3.67;2.67;;;;;15.89;56.47;99824.34;4894983;29;45339;-85
2022/04/12 04:53:25;;;;;;;;;4.00;4.00;;;;;16.15;56.34;99853.25;4895052;29;45435;-84
2022/04/12 04:55:50;;;;;;;;;7.00;6.00;;;;;15.88;56.69;99843.16;4878490;29;45482;-84
2022/04/12 04:58:16;;;;;;;;;6.00;5.33;;;;;15.85;56.95;99853.94;4878068;29;46730;-84
2022/04/12 05:00:43;;;;;;;;;5.00;5.00;;;;;15.88;56.70;99857.44;4894678;29;45494;-85
2022/04/12 05:03:09;;;;;;;;;5.33;5.33;;;;;15.81;56.68;99847.75;4895470;29;44764;-85
2022/04/12 05:05:37;;;;;;;;;6.00;5.00;;;;;15.85;56.65;99843.22;4895668;29;45549;-83
2022/04/12 05:08:03;;;;;;;;;5.67;5.67;;;;;15.75;56.97;99854.16;4894634;29;45412;-87
2022/04/12 05:10:30;;;;;;;;;7.00;5.67;;;;;15.83;57.21;99856.66;4897838;29;45112;-85
2022/04/12 05:12:57;;;;;;;;;3.67;3.67;;;;;15.67;57.46;99842.66;4913695;29;44770;-85
2022/04/12 05:15:23;;;;;;;;;6.00;5.00;;;;;15.69;57.23;99873.00;4914592;29;45427;-86
2022/04/12 05:17:50;;;;;;;;;6.00;5.67;;;;;15.78;57.30;99878.22;4913901;29;45453;-85
2022/04/12 05:20:20;;;;;;;;;6.33;4.67;;;;;15.72;57.54;99883.69;4897368;29;45414;-85
2022/04/12 05:22:47;;;;;;;;;6.00;5.00;;;;;15.81;57.21;99874.56;4915671;28;45168;-85
2022/04/12 05:25:13;;;;;;;;;5.00;5.00;;;;;15.72;57.56;99881.03;4915703;29;45886;-84
2022/04/12 05:27:39;;;;;;;;;9.33;7.00;;;;;15.68;57.16;99887.31;4914899;29;46980;-82
2022/04/12 05:30:07;;;;;;;;;5.67;5.67;;;;;15.74;57.07;99881.88;4914906;29;45865;-84
2022/04/12 05:35:56;;;;;;;;;6.00;6.00;;;;;15.75;57.23;99878.28;4916608;29;45462;-84
2022/04/12 05:38:22;;;;;;;;;7.00;4.33;;;;;15.67;57.24;99872.16;4913087;29;46647;-86
2022/04/12 05:40:47;;;;;;;;;4.00;4.00;;;;;15.73;56.59;99865.81;4914805;29;45363;-84
2022/04/12 05:43:13;;;;;;;;;4.67;4.67;;;;;15.76;56.78;99872.00;4913493;29;45724;-86
2022/04/12 05:45:41;;;;;;;;;6.33;4.67;;;;;15.81;56.90;99874.56;4913865;29;45394;-86
2022/04/12 05:48:10;;;;;;;;;6.00;6.00;;;;;15.80;56.20;99871.03;4912613;29;45301;-85
2022/04/12 05:50:36;;;;;;;;;6.33;5.67;;;;;15.90;55.99;99885.13;4913227;29;45608;-87
2022/04/12 05:53:01;;;;;;;;;7.33;4.67;;;;;15.88;56.18;99872.66;4898459;29;45848;-85
2022/04/12 05:55:28;;;;;;;;;5.33;5.33;;;;;15.95;56.10;99890.38;4916916;29;45549;-84
2022/04/12 05:58:03;;;;;;;;;5.00;5.00;;;;;16.08;55.16;99889.19;4916029;29;46587;-84
2022/04/12 06:00:30;;;;;;;;;5.00;5.00;;;;;16.16;55.68;99897.09;4914304;29;45174;-84
2022/04/12 06:03:15;;;;;;;;;;;;;;;;;;;;;
2022/04/12 06:05:55;;;;;;;;;3.67;3.67;;;;;16.15;54.66;99880.06;4915156;28;65041;-87
2022/04/12 06:08:32;;;;;;;;;5.33;5.33;;;;;15.81;54.72;99847.75;4914342;29;47222;-88
2022/04/12 06:10:57;;;;;;;;;6.67;5.00;;;;;16.14;55.43;99891.75;4915105;29;45528;-84
2022/04/12 06:13:24;;;;;;;;;6.00;6.00;;;;;15.98;53.60;99867.06;4914491;29;45341;-83
2022/04/12 06:15:50;;;;;;;;;7.00;6.00;;;;;16.04;53.16;99870.50;4899565;29;45426;-83
2022/04/12 06:18:18;;;;;;;;;5.00;5.00;;;;;16.29;52.94;99881.56;4914487;29;46177;-82
2022/04/12 06:20:46;;;;;;;;;7.33;6.00;;;;;16.61;52.65;99910.34;4916649;28;44986;-84
2022/04/12 06:23:17;;;;;;;;;5.00;5.00;;;;;16.55;52.67;99899.75;4913046;29;45879;-85
2022/04/12 06:25:43;;;;;;;;;5.00;5.00;;;;;16.17;52.00;99855.91;4897435;29;45260;-86
2022/04/12 06:28:09;;;;;;;;;11.33;7.33;;;;;16.50;52.32;99902.56;4912914;29;45368;-86
2022/04/12 06:30:35;;;;;;;;;7.33;7.33;;;;;16.44;52.97;99886.59;4896140;29;45554;-85
2022/04/12 06:33:00;;;;;;;;;4.67;4.67;;;;;16.67;51.72;99925.41;4897620;29;45446;-85
2022/04/12 06:35:26;;;;;;;;;5.67;5.00;;;;;16.76;52.29;99927.88;4897441;29;45524;-85
2022/04/12 06:38:01;;;;;;;;;6.00;5.00;;;;;16.86;51.47;99931.25;4897441;29;45404;-85
2022/04/12 06:40:27;;;;;;;;;4.00;4.00;;;;;16.68;51.58;99929.84;4914778;29;45483;-86
2022/04/12 06:43:52;;;;;;;;;5.00;5.00;;;;;17.07;50.78;99956.72;4908037;29;45279;-85
2022/04/12 06:46:21;;;;;;;;;4.00;3.00;;;;;17.13;51.17;99951.19;4835536;29;44847;-83
2022/04/12 06:49:21;;;;;;;;;4.00;4.00;;;;;17.07;50.33;99941.47;4834362;29;45531;-85
2022/04/12 06:52:36;;;;;;;;;4.33;3.00;;;;;17.29;50.55;99965.06;4837953;29;45511;-83
2022/04/12 06:55:32;;;;;;;;;3.00;3.00;;;;;17.34;50.63;99966.72;4763638;29;44873;-84
2022/04/12 06:58:05;;;;;;;;;5.00;5.00;;;;;17.46;51.25;99970.03;4763815;29;45666;-85
2022/04/12 07:00:40;;;;;;;;;4.00;4.00;;;;;17.39;50.83;99986.31;4748327;29;45535;-86
2022/04/12 07:03:40;;;;;;;;;4.00;4.00;;;;;17.63;50.37;99991.94;4762223;29;45494;-84
2022/04/12 07:06:05;;;;;;;;;4.67;4.67;;;;;17.57;49.74;99951.78;4761239;29;45598;-85
2022/04/12 07:08:51;;;;;;;;;;;;;;;;;;;;;
2022/04/12 07:11:22;;;;;;;;;5.00;3.00;;;;;17.87;50.36;99963.53;4750663;29;74458;-85
2022/04/12 07:14:10;;;;;;;;;4.00;4.00;;;;;18.23;49.54;100003.75;4781153;29;45377;-85
2022/04/12 07:16:36;;;;;;;;;3.00;3.00;;;;;18.01;49.21;99971.22;4791387;29;45528;-84
2022/04/12 07:19:02;;;;;;;;;5.00;5.00;;;;;18.31;49.10;100008.94;4818795;29;45439;-85
2022/04/12 07:21:34;;;;;;;;;5.00;5.00;;;;;18.30;48.58;99980.22;4819558;29;47066;-86
2022/04/12 07:24:19;;;;;;;;;5.00;5.00;;;;;18.45;49.06;100001.31;4820027;29;45314;-85
2022/04/12 07:26:47;;;;;;;;;8.00;6.00;;;;;18.62;48.37;99991.84;4800777;29;45434;-84
2022/04/12 07:29:25;;;;;;;;;6.33;4.67;;;;;19.04;46.37;100004.91;4803782;29;44871;-85
2022/04/12 07:36:15;;;;;;;;;4.00;3.00;;;;;19.26;47.02;99999.69;4891079;29;45474;-83
2022/04/12 07:39:04;;;;;;;;;4.33;3.00;;;;;19.28;45.86;100001.41;4840116;29;45510;-82
2022/04/12 07:41:39;;;;;;;;;1.33;1.33;;;;;19.36;45.47;99993.94;4841489;29;44893;-82
2022/04/12 07:54:43;;;;;;;;;3.33;3.33;;;;;19.52;45.53;99947.56;4733301;30;45092;-83
2022/04/12 08:00:48;;;;;;;;;3.00;3.00;;;;;19.92;44.66;99978.53;4717338;30;45487;-84
2022/04/12 08:03:53;;;;;;;;;;;;;;;;;;;;;
2022/04/12 08:10:10;;;;;;;;;2.00;2.00;;;;;20.23;44.08;99943.16;4658249;30;45545;-82
2022/04/12 08:12:52;;;;;;;;;;;;;;;;;;;;;
2022/04/12 08:23:23;;;;;;;;;2.33;2.33;;;;;21.16;42.89;99980.91;4740127;29;45196;-83
2022/04/12 08:26:48;;;;;;;;;;;;;;;;;;;;;
2022/04/12 08:29:23;;;;;;;;;3.33;3.33;;;;;21.21;43.26;99994.22;4820578;29;68267;-82
2022/04/12 08:32:03;;;;;;;;;4.00;4.00;;;;;21.19;41.39;99964.56;4822266;29;44887;-82
2022/04/12 08:37:46;;;;;;;;;4.00;4.00;;;;;21.42;41.00;99977.09;4818824;29;45442;-83
2022/04/12 08:40:32;;;;;;;;;4.00;3.00;;;;;21.47;41.54;99980.53;4803556;29;45810;-84
2022/04/12 08:43:52;;;;;;;;;3.67;3.00;;;;;21.24;41.49;99946.31;4822090;29;45628;-84
2022/04/12 08:47:35;;;;;;;;;4.67;2.33;;;;;21.28;41.48;99944.34;4784554;29;45695;-84
2022/04/12 08:51:33;;;;;;;;;;;;;;;;;;;;;
2022/04/12 09:58:34;;;;;;;;;;;;;;;;;;;;;
2022/04/12 10:01:18;;;;;;;;;2.67;2.67;;;;;22.95;39.93;99905.97;4883827;29;74811;-85
2022/04/12 10:13:06;;;;;;;;;4.00;2.00;;;;;23.14;40.06;99941.19;4926303;28;45574;-84
2022/04/12 10:15:47;;;;;;;;;4.67;4.33;;;;;22.99;38.00;99894.00;4907245;28;45429;-84
2022/04/12 10:25:20;;;;;;;;;;;;;;;;;;;;;
2022/04/12 10:28:12;;;;;;;;;;;;;;;;;;;;;
2022/04/12 10:31:58;;;;;;;;;2.33;2.33;;;;;23.61;39.74;99907.97;4819892;29;68373;-85
2022/04/12 10:34:46;;;;;;;;;;;;;;;;;;;;;
2022/04/12 10:44:41;;;;;;;;;3.00;3.00;;;;;23.66;39.10;99922.19;4750988;30;44850;-85
2022/04/12 10:47:54;;;;;;;;;2.67;2.67;;;;;23.74;38.64;99930.78;4765108;29;45750;-85
2022/04/12 10:51:00;;;;;;;;;;;;;;;;;;;;;
2022/04/12 10:54:01;;;;;;;;;6.67;4.00;;;;;23.98;40.19;99935.03;4718315;30;73155;-82
2022/04/12 10:56:34;;;;;;;;;1.67;1.00;;;;;23.74;38.51;99892.78;4762803;29;44871;-84
2022/04/12 10:59:56;;;;;;;;;;;;;;;;;;;;;
2022/04/12 11:02:44;;;;;;;;;1.67;1.67;;;;;23.71;39.15;99914.69;4753089;29;75019;-85
2022/04/12 11:05:45;;;;;;;;;3.00;3.00;;;;;23.94;39.57;99937.91;4745188;29;45787;-84
2022/04/12 11:08:48;;;;;;;;;;;;;;;;;;;;;
2022/04/12 11:21:57;;;;;;;;;3.00;3.00;;;;;24.53;38.86;99973.63;4749845;30;45640;-84
2022/04/12 11:24:36;;;;;;;;;;;;;;;;;;;;;
2022/04/12 11:27:27;;;;;;;;;;;;;;;;;;;;;
2022/04/12 11:30:41;;;;;;;;;6.00;6.00;;;;;24.66;37.94;99991.97;4799347;29;74268;-83
2022/04/12 11:33:11;;;;;;;;;6.00;6.00;;;;;24.66;38.93;99964.78;4800574;29;45523;-86
2022/04/12 11:38:55;;;;;;;;;2.67;2.67;;;;;24.43;38.58;99966.06;4739120;29;45639;-86
2022/04/12 11:44:32;;;;;;;;;3.00;3.00;;;;;24.29;37.41;99937.78;4792637;29;44903;-84
2022/04/12 11:54:27;;;;;;;;;5.33;2.33;;;;;24.45;36.62;99958.69;4785230;29;44964;-85
2022/04/12 12:00:29;;;;;;;;;;;;;;;;;;;;;
2022/04/12 12:06:57;;;;;;;;;3.00;2.00;;;;;24.72;37.53;99967.16;4712811;30;44823;-83
2022/04/12 12:09:23;;;;;;;;;1.67;1.67;;;;;24.38;37.37;99936.44;4731801;29;44845;-83
2022/04/12 12:12:00;;;;;;;;;2.00;2.00;;;;;24.66;37.95;99959.34;4821113;29;44916;-84
2022/04/12 12:14:52;;;;;;;;;4.00;2.00;;;;;24.35;38.16;99940.16;4837446;29;45450;-85
2022/04/12 12:17:18;;;;;;;;;3.00;3.00;;;;;24.66;38.37;99970.22;4873465;29;45389;-84
2022/04/12 12:19:51;;;;;;;;;2.00;2.00;;;;;24.80;37.83;99962.16;4857957;29;44988;-84
2022/04/12 12:22:57;;;;;;;;;2.33;2.33;;;;;24.83;36.86;99942.94;4880150;29;45381;-84
2022/04/12 12:26:26;;;;;;;;;2.67;2.67;;;;;24.83;37.71;99956.53;4897729;29;46085;-83
2022/04/12 12:29:17;;;;;;;;;;;;;;;;;;;;;
2022/04/12 12:31:44;;;;;;;;;2.00;2.00;;;;;24.93;36.17;99987.69;4817916;29;68768;-85
2022/04/12 12:35:01;;;;;;;;;3.33;2.33;;;;;25.13;36.38;99985.66;4803441;29;45483;-84
2022/04/12 12:37:53;;;;;;;;;2.00;2.00;;;;;25.00;35.27;99949.25;4819028;29;45491;-86
2022/04/12 12:40:47;;;;;;;;;1.00;1.00;;;;;25.17;34.28;99973.63;4835418;29;45401;-85
2022/04/12 12:43:22;;;;;;;;;2.00;2.00;;;;;25.33;35.58;100007.16;4838183;29;45418;-83
2022/04/12 12:45:56;;;;;;;;;2.33;2.33;;;;;25.24;36.33;99991.38;4818109;29;45779;-83
2022/04/12 12:49:10;;;;;;;;;5.00;2.00;;;;;25.35;36.98;100005.25;4877571;29;45082;-83
2022/04/12 12:55:00;;;;;;;;;1.33;1.00;;;;;25.36;35.78;99989.78;4793612;29;44959;-83
2022/04/12 12:58:36;;;;;;;;;2.67;1.67;;;;;25.72;34.49;100018.50;4772121;29;45556;-83
2022/04/12 13:09:26;;;;;;;;;2.00;2.00;;;;;25.96;36.43;100029.78;4780579;23;46406;-85
2022/04/12 13:12:05;;;;;;;;;2.00;1.67;;;;;25.77;35.90;99999.13;4921323;28;47008;-85
2022/04/12 13:14:44;;;;;;;;;2.33;2.33;;;;;25.79;36.06;100013.53;4935821;28;45433;-84
2022/04/12 13:17:29;;;;;;;;;3.00;1.00;;;;;25.52;35.05;99996.06;4938911;28;45476;-84
2022/04/12 13:19:57;;;;;;;;;5.00;3.00;;;;;25.88;36.20;100045.69;4926887;28;44864;-84
2022/04/12 13:22:46;;;;;;;;;2.00;2.00;;;;;25.81;36.13;99985.22;4931132;28;47776;-83
2022/04/12 13:25:21;;;;;;;;;4.67;2.00;;;;;25.89;34.99;100031.06;4918609;28;45336;-82
2022/04/12 13:27:53;;;;;;;;;1.67;1.00;;;;;25.94;34.79;100042.63;4934379;28;44756;-84
2022/04/12 13:30:32;;;;;;;;;2.00;1.67;;;;;26.06;36.09;100039.13;4919298;28;45157;-83
2022/04/12 13:36:23;;;;;;;;;2.67;2.67;;;;;25.92;35.53;100007.28;4952412;28;45382;-85
2022/04/12 13:38:49;;;;;;;;;3.00;3.00;;;;;25.77;36.52;99985.53;4955789;28;45712;-85
2022/04/12 13:41:18;;;;;;;;;1.33;1.33;;;;;26.15;33.42;100021.31;4935541;28;45484;-83
2022/04/12 13:43:43;;;;;;;;;2.00;2.00;;;;;25.89;34.67;100006.56;4934856;28;45435;-83
2022/04/12 13:46:11;;;;;;;;;1.00;1.00;;;;;25.79;34.86;99980.84;4917944;28;44961;-83
2022/04/12 13:48:47;;;;;;;;;2.33;2.00;;;;;26.18;35.77;99998.44;4934426;28;44848;-84
2022/04/12 13:51:19;;;;;;;;;4.00;3.67;;;;;26.11;34.34;99979.75;4937898;28;44818;-85
2022/04/12 13:53:51;;;;;;;;;2.67;2.67;;;;;26.23;33.68;100018.13;4935816;28;47298;-85
2022/04/12 13:56:20;;;;;;;;;1.67;1.67;;;;;26.17;35.16;99996.72;4935445;28;45605;-83
2022/04/12 13:59:05;;;;;;;;;1.33;1.33;;;;;26.10;34.24;99983.47;4933415;28;44915;-83
2022/04/12 14:01:54;;;;;;;;;3.00;3.00;;;;;26.22;34.77;100011.81;4932550;28;45461;-83
2022/04/12 14:04:40;;;;;;;;;;;;;;;;;;;;;
2022/04/12 14:11:13;;;;;;;;;;;;;;;;;;;;;
2022/04/12 14:14:21;;;;;;;;;;;;;;;;;;;;;
2022/04/12 14:20:33;;;;;;;;;1.00;1.00;;;;;31.00;30.08;100027.56;4854747;29;45856;-84
2022/04/12 14:42:50;;;;;;;;;2.25;0.25;;;;;34.03;26.16;100007.00;3186072;23;45905;-83
2022/04/12 14:45:34;;;;;;;;;;;;;;;;;;;;;
2022/04/12 14:48:20;;;;;;;;;4.00;2.33;;;;;32.34;28.20;99997.81;4919902;28;65599;-82
2022/04/12 14:51:05;;;;;;;;;;;;;;;;;;;;;
2022/04/12 14:54:46;;;;;;;;;;;;;;;;;;;;;
2022/04/12 14:58:02;;;;;;;;;3.67;3.67;;;;;29.45;30.58;100010.53;4874963;29;68765;-84
2022/04/12 15:01:04;;;;;;;;;5.67;4.00;;;;;29.03;29.04;100034.66;4840091;29;45289;-84
2022/04/12 15:03:56;;;;;;;;;3.00;3.00;;;;;28.31;30.42;100029.81;4823473;29;45594;-84
2022/04/12 15:07:20;;;;;;;;;;;;;;;;;;;;;
2022/04/12 15:10:19;;;;;;;;;2.00;2.00;;;;;28.03;32.52;100053.63;4738621;30;67188;-85
2022/04/12 15:12:58;;;;;;;;;6.67;4.00;;;;;27.82;31.54;100033.22;4750398;29;45278;-83
2022/04/12 15:15:40;;;;;;;;;;;;;;;;;;;;;
2022/04/12 15:24:57;;;;;;;;;7.00;3.00;;;;;27.37;33.89;100070.88;4784431;29;45527;-84
2022/04/12 15:27:49;;;;;;;;;;;;;;;;;;;;;
2022/04/12 15:30:19;;;;;;;;;4.00;3.00;;;;;27.42;33.59;100085.09;4783951;29;72107;-85
2022/04/12 15:32:46;;;;;;;;;5.00;3.67;;;;;27.02;33.84;100049.47;4806062;29;45399;-84
2022/04/12 15:35:27;;;;;;;;;4.00;4.00;;;;;27.17;34.53;100085.81;4838582;29;44832;-84
2022/04/12 15:38:00;;;;;;;;;1.67;1.67;;;;;26.85;34.22;100078.75;4817186;29;44999;-84
2022/04/12 15:40:27;;;;;;;;;1.00;1.00;;;;;26.97;35.10;100100.78;4822101;29;45473;-84
2022/04/12 15:43:17;;;;;;;;;4.67;3.33;;;;;26.73;35.12;100068.63;4818111;29;45763;-84
2022/04/12 15:45:42;;;;;;;;;4.33;3.00;;;;;26.53;35.08;100108.91;4873879;29;46006;-84
2022/04/12 15:48:09;;;;;;;;;2.00;2.00;;;;;26.45;36.01;100111.22;4896847;28;47949;-83
2022/04/12 15:50:46;;;;;;;;;3.00;2.00;;;;;26.12;36.09;100098.72;4916942;28;45939;-83
2022/04/12 15:53:11;;;;;;;;;4.00;4.00;;;;;25.88;35.62;100092.00;4899906;28;44809;-84
2022/04/12 15:55:44;;;;;;;;;1.67;1.67;;;;;25.74;36.28;100112.75;4916176;28;45004;-83
2022/04/12 15:58:31;;;;;;;;;3.33;3.33;;;;;25.80;36.09;100118.81;4903395;29;47154;-83
2022/04/12 16:04:38;;;;;;;;;2.33;2.00;;;;;25.32;36.66;100111.56;4920396;29;44852;-84
2022/04/12 16:07:07;;;;;;;;;4.00;4.00;;;;;24.98;37.66;100098.94;4920668;28;45696;-84
2022/04/12 16:09:35;;;;;;;;;7.67;7.67;;;;;24.93;37.78;100128.28;4919851;29;45441;-85
2022/04/12 16:12:23;;;;;;;;;5.00;3.00;;;;;24.70;38.04;100099.59;4904704;29;45447;-83
2022/04/12 16:14:49;;;;;;;;;3.00;3.00;;;;;24.44;38.64;100104.59;4918575;29;44829;-84
2022/04/12 16:17:27;;;;;;;;;3.00;3.00;;;;;24.42;38.81;100106.53;4902297;29;44927;-83
2022/04/12 16:19:53;;;;;;;;;4.33;3.00;;;;;24.29;39.04;100125.31;4901722;29;47173;-84
2022/04/12 16:22:20;;;;;;;;;4.00;4.00;;;;;24.31;39.58;100127.94;4900755;29;45550;-84